Terminal Aerodrome Forecast
Issued by NWS

Home | Current Version | Previous Version | Text Only | Print | Product List | Glossary On
Versions: 1 2 3 4 5 6 7 8 9 10 11 12 13 14
000
FTPQ31 PGUM 222329
TAFGUM
TAF

TAF
PTYA 222329Z 2300/2324 30011KT P6SM VCSH SCT016 SCT030 BKN130
      TEMPO 2305/2309 VRB12G22KT 3SM +SHRA SCT015 OVC030
     FM230900 32013KT P6SM SHRA SCT015 BKN030 BKN110=

USA.gov is the U.S. government's official web portal to all federal, state and local government web resources and services.